sensor_id;sensor_type;location;lat;lon;timestamp;P1;durP1;ratioP1;P2;durP2;ratioP2
35276;SDS011;21401;50.878;8.050;2023-03-01T00:00:20;24.98;;;13.02;;
35276;SDS011;21401;50.878;8.050;2023-03-01T00:02:45;22.13;;;13.02;;
35276;SDS011;21401;50.878;8.050;2023-03-01T00:05:11;26.77;;;13.55;;
35276;SDS011;21401;50.878;8.050;2023-03-01T00:07:37;23.80;;;13.95;;
35276;SDS011;21401;50.878;8.050;2023-03-01T00:10:03;21.52;;;13.13;;
35276;SDS011;21401;50.878;8.050;2023-03-01T00:12:28;25.20;;;13.60;;
35276;SDS011;21401;50.878;8.050;2023-03-01T00:14:56;23.88;;;12.93;;
35276;SDS011;21401;50.878;8.050;2023-03-01T00:17:21;27.98;;;13.35;;
35276;SDS011;21401;50.878;8.050;2023-03-01T00:19:47;24.23;;;13.23;;
35276;SDS011;21401;50.878;8.050;2023-03-01T00:22:12;22.58;;;12.85;;
35276;SDS011;21401;50.878;8.050;2023-03-01T00:24:38;25.02;;;13.90;;
35276;SDS011;21401;50.878;8.050;2023-03-01T00:27:04;27.65;;;14.13;;
35276;SDS011;21401;50.878;8.050;2023-03-01T00:29:30;25.75;;;13.77;;
35276;SDS011;21401;50.878;8.050;2023-03-01T00:31:55;22.95;;;14.93;;
35276;SDS011;21401;50.878;8.050;2023-03-01T00:34:21;22.73;;;13.68;;
35276;SDS011;21401;50.878;8.050;2023-03-01T00:36:49;33.45;;;17.05;;
35276;SDS011;21401;50.878;8.050;2023-03-01T00:39:14;28.77;;;16.45;;
35276;SDS011;21401;50.878;8.050;2023-03-01T00:41:41;28.63;;;15.90;;
35276;SDS011;21401;50.878;8.050;2023-03-01T00:44:07;26.90;;;15.50;;
35276;SDS011;21401;50.878;8.050;2023-03-01T00:46:32;25.55;;;14.68;;
35276;SDS011;21401;50.878;8.050;2023-03-01T00:48:58;25.85;;;14.90;;
35276;SDS011;21401;50.878;8.050;2023-03-01T00:51:27;26.83;;;14.43;;
35276;SDS011;21401;50.878;8.050;2023-03-01T00:53:54;22.40;;;13.73;;
35276;SDS011;21401;50.878;8.050;2023-03-01T00:56:24;21.50;;;13.35;;
35276;SDS011;21401;50.878;8.050;2023-03-01T00:58:50;23.77;;;13.07;;
35276;SDS011;21401;50.878;8.050;2023-03-01T01:01:22;22.52;;;11.88;;
35276;SDS011;21401;50.878;8.050;2023-03-01T01:06:23;19.02;;;11.70;;
35276;SDS011;21401;50.878;8.050;2023-03-01T01:08:49;24.42;;;11.85;;
35276;SDS011;21401;50.878;8.050;2023-03-01T01:11:15;18.00;;;12.18;;
35276;SDS011;21401;50.878;8.050;2023-03-01T01:13:43;19.50;;;12.27;;
35276;SDS011;21401;50.878;8.050;2023-03-01T01:16:10;22.63;;;13.55;;
35276;SDS011;21401;50.878;8.050;2023-03-01T01:18:35;26.08;;;14.07;;
35276;SDS011;21401;50.878;8.050;2023-03-01T01:21:09;24.70;;;13.48;;
35276;SDS011;21401;50.878;8.050;2023-03-01T01:23:40;26.30;;;13.35;;
35276;SDS011;21401;50.878;8.050;2023-03-01T01:26:08;21.30;;;11.77;;
35276;SDS011;21401;50.878;8.050;2023-03-01T01:28:36;20.60;;;12.30;;
35276;SDS011;21401;50.878;8.050;2023-03-01T01:31:02;23.38;;;12.45;;
35276;SDS011;21401;50.878;8.050;2023-03-01T01:33:28;21.15;;;11.88;;
35276;SDS011;21401;50.878;8.050;2023-03-01T01:35:54;21.33;;;12.88;;
35276;SDS011;21401;50.878;8.050;2023-03-01T01:38:20;20.00;;;12.18;;
35276;SDS011;21401;50.878;8.050;2023-03-01T01:40:47;25.73;;;11.95;;
35276;SDS011;21401;50.878;8.050;2023-03-01T01:43:16;24.88;;;10.90;;
35276;SDS011;21401;50.878;8.050;2023-03-01T01:45:52;20.58;;;11.85;;
35276;SDS011;21401;50.878;8.050;2023-03-01T01:48:23;22.58;;;12.82;;
35276;SDS011;21401;50.878;8.050;2023-03-01T01:51:05;22.30;;;11.48;;
35276;SDS011;21401;50.878;8.050;2023-03-01T01:53:32;22.55;;;11.75;;
35276;SDS011;21401;50.878;8.050;2023-03-01T01:56:00;20.27;;;11.73;;
35276;SDS011;21401;50.878;8.050;2023-03-01T01:58:27;24.25;;;13.10;;
35276;SDS011;21401;50.878;8.050;2023-03-01T02:00:55;26.10;;;13.45;;
35276;SDS011;21401;50.878;8.050;2023-03-01T02:03:25;28.40;;;13.20;;
35276;SDS011;21401;50.878;8.050;2023-03-01T02:08:28;23.20;;;13.25;;
35276;SDS011;21401;50.878;8.050;2023-03-01T02:10:58;28.08;;;13.68;;
35276;SDS011;21401;50.878;8.050;2023-03-01T02:13:25;24.67;;;13.05;;
35276;SDS011;21401;50.878;8.050;2023-03-01T02:15:52;23.45;;;12.93;;
35276;SDS011;21401;50.878;8.050;2023-03-01T02:18:18;26.40;;;12.65;;
35276;SDS011;21401;50.878;8.050;2023-03-01T02:23:30;24.48;;;12.65;;
35276;SDS011;21401;50.878;8.050;2023-03-01T02:30:50;23.73;;;12.32;;
35276;SDS011;21401;50.878;8.050;2023-03-01T02:33:35;21.42;;;12.05;;
35276;SDS011;21401;50.878;8.050;2023-03-01T02:36:03;24.80;;;12.80;;
35276;SDS011;21401;50.878;8.050;2023-03-01T02:38:32;23.25;;;13.45;;
35276;SDS011;21401;50.878;8.050;2023-03-01T02:40:58;20.17;;;12.30;;
35276;SDS011;21401;50.878;8.050;2023-03-01T02:43:27;19.98;;;12.48;;
35276;SDS011;21401;50.878;8.050;2023-03-01T02:46:06;20.33;;;11.80;;
35276;SDS011;21401;50.878;8.050;2023-03-01T02:48:40;22.10;;;12.40;;
35276;SDS011;21401;50.878;8.050;2023-03-01T02:51:14;22.17;;;12.00;;
35276;SDS011;21401;50.878;8.050;2023-03-01T02:56:19;18.55;;;11.23;;
35276;SDS011;21401;50.878;8.050;2023-03-01T02:58:44;21.77;;;12.52;;
35276;SDS011;21401;50.878;8.050;2023-03-01T03:01:13;18.75;;;12.18;;
35276;SDS011;21401;50.878;8.050;2023-03-01T03:03:40;21.55;;;12.18;;
35276;SDS011;21401;50.878;8.050;2023-03-01T03:06:06;20.40;;;12.80;;
35276;SDS011;21401;50.878;8.050;2023-03-01T03:08:33;20.40;;;11.32;;
35276;SDS011;21401;50.878;8.050;2023-03-01T03:10:58;18.50;;;11.55;;
35276;SDS011;21401;50.878;8.050;2023-03-01T03:13:24;18.08;;;11.52;;
35276;SDS011;21401;50.878;8.050;2023-03-01T03:15:53;23.80;;;12.13;;
35276;SDS011;21401;50.878;8.050;2023-03-01T03:18:20;22.02;;;12.80;;
35276;SDS011;21401;50.878;8.050;2023-03-01T03:20:47;24.80;;;12.70;;
35276;SDS011;21401;50.878;8.050;2023-03-01T03:23:17;23.20;;;12.73;;
35276;SDS011;21401;50.878;8.050;2023-03-01T03:25:43;22.00;;;12.13;;
35276;SDS011;21401;50.878;8.050;2023-03-01T03:28:08;23.85;;;12.60;;
35276;SDS011;21401;50.878;8.050;2023-03-01T03:30:35;24.20;;;12.90;;
35276;SDS011;21401;50.878;8.050;2023-03-01T03:33:04;20.20;;;12.75;;
35276;SDS011;21401;50.878;8.050;2023-03-01T03:35:38;25.08;;;12.77;;
35276;SDS011;21401;50.878;8.050;2023-03-01T03:38:07;19.00;;;11.82;;
35276;SDS011;21401;50.878;8.050;2023-03-01T03:40:41;22.27;;;12.35;;
35276;SDS011;21401;50.878;8.050;2023-03-01T03:43:09;20.48;;;12.25;;
35276;SDS011;21401;50.878;8.050;2023-03-01T03:45:37;17.85;;;11.68;;
35276;SDS011;21401;50.878;8.050;2023-03-01T03:48:04;24.35;;;12.65;;
35276;SDS011;21401;50.878;8.050;2023-03-01T03:50:31;20.70;;;12.70;;
35276;SDS011;21401;50.878;8.050;2023-03-01T03:52:57;22.67;;;12.27;;
35276;SDS011;21401;50.878;8.050;2023-03-01T03:55:26;21.58;;;12.98;;
35276;SDS011;21401;50.878;8.050;2023-03-01T03:57:56;26.60;;;14.18;;
35276;SDS011;21401;50.878;8.050;2023-03-01T04:00:23;27.02;;;13.60;;
35276;SDS011;21401;50.878;8.050;2023-03-01T04:02:50;25.77;;;13.57;;
35276;SDS011;21401;50.878;8.050;2023-03-01T04:05:16;21.67;;;12.80;;
35276;SDS011;21401;50.878;8.050;2023-03-01T04:07:44;22.65;;;13.30;;
35276;SDS011;21401;50.878;8.050;2023-03-01T04:10:11;21.92;;;13.50;;
35276;SDS011;21401;50.878;8.050;2023-03-01T04:12:40;20.58;;;11.90;;
35276;SDS011;21401;50.878;8.050;2023-03-01T04:15:08;22.42;;;12.40;;
35276;SDS011;21401;50.878;8.050;2023-03-01T04:17:40;25.23;;;13.05;;
35276;SDS011;21401;50.878;8.050;2023-03-01T04:20:15;25.40;;;13.38;;
35276;SDS011;21401;50.878;8.050;2023-03-01T04:22:42;26.02;;;15.13;;
35276;SDS011;21401;50.878;8.050;2023-03-01T04:25:11;31.17;;;15.13;;
35276;SDS011;21401;50.878;8.050;2023-03-01T04:27:39;29.00;;;14.35;;
35276;SDS011;21401;50.878;8.050;2023-03-01T04:30:06;30.90;;;16.48;;
35276;SDS011;21401;50.878;8.050;2023-03-01T04:32:32;45.95;;;20.45;;
35276;SDS011;21401;50.878;8.050;2023-03-01T04:34:58;43.05;;;19.42;;
35276;SDS011;21401;50.878;8.050;2023-03-01T04:37:24;51.83;;;24.27;;
35276;SDS011;21401;50.878;8.050;2023-03-01T04:39:50;40.35;;;20.13;;
35276;SDS011;21401;50.878;8.050;2023-03-01T04:42:16;47.25;;;20.48;;
35276;SDS011;21401;50.878;8.050;2023-03-01T04:44:42;38.72;;;17.77;;
35276;SDS011;21401;50.878;8.050;2023-03-01T04:47:09;41.10;;;18.10;;
35276;SDS011;21401;50.878;8.050;2023-03-01T04:49:34;42.03;;;19.30;;
35276;SDS011;21401;50.878;8.050;2023-03-01T04:52:00;38.28;;;18.08;;
35276;SDS011;21401;50.878;8.050;2023-03-01T04:54:30;44.85;;;19.30;;
35276;SDS011;21401;50.878;8.050;2023-03-01T04:56:57;54.97;;;21.30;;
35276;SDS011;21401;50.878;8.050;2023-03-01T04:59:23;39.50;;;17.95;;
35276;SDS011;21401;50.878;8.050;2023-03-01T05:01:50;38.83;;;17.27;;
35276;SDS011;21401;50.878;8.050;2023-03-01T05:04:16;31.20;;;16.40;;
35276;SDS011;21401;50.878;8.050;2023-03-01T05:06:42;32.53;;;16.58;;
35276;SDS011;21401;50.878;8.050;2023-03-01T05:09:08;31.58;;;15.75;;
35276;SDS011;21401;50.878;8.050;2023-03-01T05:11:33;33.78;;;16.17;;
35276;SDS011;21401;50.878;8.050;2023-03-01T05:14:04;32.85;;;16.10;;
35276;SDS011;21401;50.878;8.050;2023-03-01T05:16:31;36.75;;;16.98;;
35276;SDS011;21401;50.878;8.050;2023-03-01T05:18:57;39.63;;;18.35;;
35276;SDS011;21401;50.878;8.050;2023-03-01T05:21:24;38.60;;;19.42;;
35276;SDS011;21401;50.878;8.050;2023-03-01T05:23:50;41.33;;;18.33;;
35276;SDS011;21401;50.878;8.050;2023-03-01T05:26:16;42.83;;;18.70;;
35276;SDS011;21401;50.878;8.050;2023-03-01T05:28:44;37.88;;;17.50;;
35276;SDS011;21401;50.878;8.050;2023-03-01T05:31:10;33.05;;;15.18;;
35276;SDS011;21401;50.878;8.050;2023-03-01T05:33:39;28.23;;;14.57;;
35276;SDS011;21401;50.878;8.050;2023-03-01T05:36:10;29.38;;;14.95;;
35276;SDS011;21401;50.878;8.050;2023-03-01T05:38:36;26.30;;;13.43;;
35276;SDS011;21401;50.878;8.050;2023-03-01T05:41:01;26.52;;;14.05;;
35276;SDS011;21401;50.878;8.050;2023-03-01T05:43:29;27.88;;;14.35;;
35276;SDS011;21401;50.878;8.050;2023-03-01T05:45:58;25.05;;;13.02;;
35276;SDS011;21401;50.878;8.050;2023-03-01T05:48:25;27.33;;;15.07;;
35276;SDS011;21401;50.878;8.050;2023-03-01T05:50:51;24.40;;;13.57;;
35276;SDS011;21401;50.878;8.050;2023-03-01T05:53:18;29.33;;;14.80;;
35276;SDS011;21401;50.878;8.050;2023-03-01T05:55:47;34.08;;;15.18;;
35276;SDS011;21401;50.878;8.050;2023-03-01T05:58:15;31.88;;;15.40;;
35276;SDS011;21401;50.878;8.050;2023-03-01T06:00:43;41.47;;;17.98;;
35276;SDS011;21401;50.878;8.050;2023-03-01T06:03:11;36.38;;;17.38;;
35276;SDS011;21401;50.878;8.050;2023-03-01T06:05:38;36.28;;;17.58;;
35276;SDS011;21401;50.878;8.050;2023-03-01T06:08:05;40.30;;;18.42;;
35276;SDS011;21401;50.878;8.050;2023-03-01T06:10:31;23.60;;;13.48;;
35276;SDS011;21401;50.878;8.050;2023-03-01T06:12:59;30.75;;;14.60;;
35276;SDS011;21401;50.878;8.050;2023-03-01T06:15:25;22.80;;;12.80;;
35276;SDS011;21401;50.878;8.050;2023-03-01T06:17:51;24.35;;;13.38;;
35276;SDS011;21401;50.878;8.050;2023-03-01T06:20:21;25.08;;;14.00;;
35276;SDS011;21401;50.878;8.050;2023-03-01T06:22:47;33.45;;;16.58;;
35276;SDS011;21401;50.878;8.050;2023-03-01T06:25:15;33.13;;;17.27;;
35276;SDS011;21401;50.878;8.050;2023-03-01T06:27:44;38.83;;;20.55;;
35276;SDS011;21401;50.878;8.050;2023-03-01T06:30:11;35.58;;;19.27;;
35276;SDS011;21401;50.878;8.050;2023-03-01T06:32:39;41.38;;;18.48;;
35276;SDS011;21401;50.878;8.050;2023-03-01T06:35:07;34.22;;;16.95;;
35276;SDS011;21401;50.878;8.050;2023-03-01T06:37:33;37.17;;;17.88;;
35276;SDS011;21401;50.878;8.050;2023-03-01T06:40:00;30.80;;;17.15;;
35276;SDS011;21401;50.878;8.050;2023-03-01T06:42:29;25.48;;;14.35;;
35276;SDS011;21401;50.878;8.050;2023-03-01T06:44:55;23.42;;;14.35;;
35276;SDS011;21401;50.878;8.050;2023-03-01T06:47:21;22.67;;;12.65;;
35276;SDS011;21401;50.878;8.050;2023-03-01T06:49:47;20.75;;;12.90;;
35276;SDS011;21401;50.878;8.050;2023-03-01T06:52:12;21.48;;;12.48;;
35276;SDS011;21401;50.878;8.050;2023-03-01T06:54:38;27.45;;;15.30;;
35276;SDS011;21401;50.878;8.050;2023-03-01T06:57:03;39.65;;;18.95;;
35276;SDS011;21401;50.878;8.050;2023-03-01T06:59:29;42.45;;;19.90;;
35276;SDS011;21401;50.878;8.050;2023-03-01T07:01:55;40.20;;;17.40;;
35276;SDS011;21401;50.878;8.050;2023-03-01T07:04:20;27.25;;;15.73;;
35276;SDS011;21401;50.878;8.050;2023-03-01T07:06:46;26.23;;;13.07;;
35276;SDS011;21401;50.878;8.050;2023-03-01T07:11:46;25.30;;;11.55;;
35276;SDS011;21401;50.878;8.050;2023-03-01T07:14:12;23.92;;;11.65;;
35276;SDS011;21401;50.878;8.050;2023-03-01T07:16:38;19.50;;;11.13;;
35276;SDS011;21401;50.878;8.050;2023-03-01T07:19:03;17.73;;;10.38;;
35276;SDS011;21401;50.878;8.050;2023-03-01T07:21:30;17.25;;;10.10;;
35276;SDS011;21401;50.878;8.050;2023-03-01T07:23:56;17.17;;;10.00;;
35276;SDS011;21401;50.878;8.050;2023-03-01T07:26:22;18.00;;;10.30;;
35276;SDS011;21401;50.878;8.050;2023-03-01T07:28:47;23.95;;;11.40;;
35276;SDS011;21401;50.878;8.050;2023-03-01T07:31:13;20.80;;;10.90;;
35276;SDS011;21401;50.878;8.050;2023-03-01T07:33:38;19.20;;;11.70;;
35276;SDS011;21401;50.878;8.050;2023-03-01T07:36:05;26.33;;;13.57;;
35276;SDS011;21401;50.878;8.050;2023-03-01T07:38:31;23.25;;;12.88;;
35276;SDS011;21401;50.878;8.050;2023-03-01T07:40:57;22.58;;;12.52;;
35276;SDS011;21401;50.878;8.050;2023-03-01T07:43:27;24.02;;;13.85;;
35276;SDS011;21401;50.878;8.050;2023-03-01T07:45:54;19.35;;;10.93;;
35276;SDS011;21401;50.878;8.050;2023-03-01T07:48:19;21.67;;;13.48;;
35276;SDS011;21401;50.878;8.050;2023-03-01T07:50:45;20.25;;;13.30;;
35276;SDS011;21401;50.878;8.050;2023-03-01T07:53:10;19.02;;;11.43;;
35276;SDS011;21401;50.878;8.050;2023-03-01T07:55:36;19.92;;;11.82;;
35276;SDS011;21401;50.878;8.050;2023-03-01T07:58:02;21.33;;;12.80;;
35276;SDS011;21401;50.878;8.050;2023-03-01T08:00:28;19.25;;;11.48;;
35276;SDS011;21401;50.878;8.050;2023-03-01T08:02:54;16.05;;;9.07;;
35276;SDS011;21401;50.878;8.050;2023-03-01T08:05:23;15.65;;;8.80;;
35276;SDS011;21401;50.878;8.050;2023-03-01T08:07:48;15.82;;;8.45;;
35276;SDS011;21401;50.878;8.050;2023-03-01T08:10:14;15.77;;;9.77;;
35276;SDS011;21401;50.878;8.050;2023-03-01T08:12:40;16.88;;;8.45;;
35276;SDS011;21401;50.878;8.050;2023-03-01T08:15:06;13.18;;;7.93;;
35276;SDS011;21401;50.878;8.050;2023-03-01T08:17:32;14.73;;;8.27;;
35276;SDS011;21401;50.878;8.050;2023-03-01T08:19:57;15.50;;;7.72;;
35276;SDS011;21401;50.878;8.050;2023-03-01T08:22:23;13.32;;;8.02;;
35276;SDS011;21401;50.878;8.050;2023-03-01T08:24:49;13.23;;;7.90;;
35276;SDS011;21401;50.878;8.050;2023-03-01T08:27:15;13.30;;;7.78;;
35276;SDS011;21401;50.878;8.050;2023-03-01T08:29:41;18.83;;;8.48;;
35276;SDS011;21401;50.878;8.050;2023-03-01T08:32:07;12.68;;;8.32;;
35276;SDS011;21401;50.878;8.050;2023-03-01T08:34:32;17.05;;;8.65;;
35276;SDS011;21401;50.878;8.050;2023-03-01T08:37:00;13.55;;;7.38;;
35276;SDS011;21401;50.878;8.050;2023-03-01T08:39:27;15.00;;;7.93;;
35276;SDS011;21401;50.878;8.050;2023-03-01T08:41:53;11.23;;;6.38;;
35276;SDS011;21401;50.878;8.050;2023-03-01T08:44:18;14.45;;;8.55;;
35276;SDS011;21401;50.878;8.050;2023-03-01T08:46:45;13.57;;;7.10;;
35276;SDS011;21401;50.878;8.050;2023-03-01T08:49:21;12.27;;;7.28;;
35276;SDS011;21401;50.878;8.050;2023-03-01T08:51:47;17.23;;;7.20;;
35276;SDS011;21401;50.878;8.050;2023-03-01T08:54:14;13.07;;;6.97;;
35276;SDS011;21401;50.878;8.050;2023-03-01T08:56:44;13.68;;;7.00;;
35276;SDS011;21401;50.878;8.050;2023-03-01T08:59:10;15.82;;;7.90;;
35276;SDS011;21401;50.878;8.050;2023-03-01T09:01:37;12.30;;;7.78;;
35276;SDS011;21401;50.878;8.050;2023-03-01T09:04:03;15.55;;;7.60;;
35276;SDS011;21401;50.878;8.050;2023-03-01T09:06:30;13.23;;;7.38;;
35276;SDS011;21401;50.878;8.050;2023-03-01T09:08:58;11.35;;;6.57;;
35276;SDS011;21401;50.878;8.050;2023-03-01T09:11:24;17.00;;;7.32;;
35276;SDS011;21401;50.878;8.050;2023-03-01T09:13:49;11.25;;;6.35;;
35276;SDS011;21401;50.878;8.050;2023-03-01T09:16:16;14.30;;;6.85;;
35276;SDS011;21401;50.878;8.050;2023-03-01T09:18:44;13.00;;;6.85;;
35276;SDS011;21401;50.878;8.050;2023-03-01T09:21:14;13.40;;;7.70;;
35276;SDS011;21401;50.878;8.050;2023-03-01T09:23:45;10.43;;;6.55;;
35276;SDS011;21401;50.878;8.050;2023-03-01T09:26:13;10.05;;;6.65;;
35276;SDS011;21401;50.878;8.050;2023-03-01T09:28:44;15.40;;;7.40;;
35276;SDS011;21401;50.878;8.050;2023-03-01T09:31:11;11.65;;;7.10;;
35276;SDS011;21401;50.878;8.050;2023-03-01T09:33:38;17.42;;;6.85;;
35276;SDS011;21401;50.878;8.050;2023-03-01T09:36:05;12.82;;;6.82;;
35276;SDS011;21401;50.878;8.050;2023-03-01T09:38:32;18.73;;;7.55;;
35276;SDS011;21401;50.878;8.050;2023-03-01T09:40:59;12.18;;;6.47;;
35276;SDS011;21401;50.878;8.050;2023-03-01T09:43:28;16.08;;;6.07;;
35276;SDS011;21401;50.878;8.050;2023-03-01T09:46:00;13.80;;;7.03;;
35276;SDS011;21401;50.878;8.050;2023-03-01T09:48:33;14.77;;;7.25;;
35276;SDS011;21401;50.878;8.050;2023-03-01T09:51:06;11.80;;;5.93;;
35276;SDS011;21401;50.878;8.050;2023-03-01T09:53:39;10.88;;;6.30;;
35276;SDS011;21401;50.878;8.050;2023-03-01T09:56:05;12.27;;;6.18;;
35276;SDS011;21401;50.878;8.050;2023-03-01T10:01:59;12.57;;;6.30;;
35276;SDS011;21401;50.878;8.050;2023-03-01T10:04:39;13.52;;;8.23;;
35276;SDS011;21401;50.878;8.050;2023-03-01T10:07:32;11.73;;;6.10;;
35276;SDS011;21401;50.878;8.050;2023-03-01T10:10:16;11.70;;;6.05;;
35276;SDS011;21401;50.878;8.050;2023-03-01T10:12:53;12.88;;;5.97;;
35276;SDS011;21401;50.878;8.050;2023-03-01T10:15:28;10.77;;;5.95;;
35276;SDS011;21401;50.878;8.050;2023-03-01T10:18:00;13.50;;;5.75;;
35276;SDS011;21401;50.878;8.050;2023-03-01T10:23:19;14.18;;;6.45;;
35276;SDS011;21401;50.878;8.050;2023-03-01T10:25:50;14.63;;;6.55;;
35276;SDS011;21401;50.878;8.050;2023-03-01T10:31:22;10.95;;;6.75;;
35276;SDS011;21401;50.878;8.050;2023-03-01T10:33:53;10.65;;;5.75;;
35276;SDS011;21401;50.878;8.050;2023-03-01T10:36:20;10.05;;;5.95;;
35276;SDS011;21401;50.878;8.050;2023-03-01T10:38:48;14.18;;;5.80;;
35276;SDS011;21401;50.878;8.050;2023-03-01T10:41:20;8.05;;;5.72;;
35276;SDS011;21401;50.878;8.050;2023-03-01T10:43:58;9.55;;;6.13;;
35276;SDS011;21401;50.878;8.050;2023-03-01T10:46:35;11.38;;;5.40;;
35276;SDS011;21401;50.878;8.050;2023-03-01T10:49:06;13.88;;;5.65;;
35276;SDS011;21401;50.878;8.050;2023-03-01T10:51:42;9.20;;;5.75;;
35276;SDS011;21401;50.878;8.050;2023-03-01T10:54:22;10.10;;;5.90;;
35276;SDS011;21401;50.878;8.050;2023-03-01T10:56:57;9.60;;;5.60;;
35276;SDS011;21401;50.878;8.050;2023-03-01T10:59:29;14.25;;;5.32;;
35276;SDS011;21401;50.878;8.050;2023-03-01T11:04:35;10.20;;;5.60;;
35276;SDS011;21401;50.878;8.050;2023-03-01T11:07:01;9.45;;;5.35;;
35276;SDS011;21401;50.878;8.050;2023-03-01T11:09:30;10.32;;;5.38;;
35276;SDS011;21401;50.878;8.050;2023-03-01T11:12:03;9.38;;;5.47;;
35276;SDS011;21401;50.878;8.050;2023-03-01T11:14:35;9.15;;;5.43;;
35276;SDS011;21401;50.878;8.050;2023-03-01T11:17:11;8.68;;;5.38;;
35276;SDS011;21401;50.878;8.050;2023-03-01T11:20:06;11.02;;;6.47;;
35276;SDS011;21401;50.878;8.050;2023-03-01T11:22:47;10.45;;;6.10;;
35276;SDS011;21401;50.878;8.050;2023-03-01T11:25:17;11.35;;;5.90;;
35276;SDS011;21401;50.878;8.050;2023-03-01T11:27:46;9.02;;;5.07;;
35276;SDS011;21401;50.878;8.050;2023-03-01T11:30:18;10.30;;;5.45;;
35276;SDS011;21401;50.878;8.050;2023-03-01T11:33:08;6.68;;;4.30;;
35276;SDS011;21401;50.878;8.050;2023-03-01T11:35:47;9.70;;;5.17;;
35276;SDS011;21401;50.878;8.050;2023-03-01T11:38:25;9.98;;;5.68;;
35276;SDS011;21401;50.878;8.050;2023-03-01T11:41:04;8.52;;;5.10;;
35276;SDS011;21401;50.878;8.050;2023-03-01T12:27:22;6.88;;;4.63;;
35276;SDS011;21401;50.878;8.050;2023-03-01T12:32:36;9.35;;;4.88;;
35276;SDS011;21401;50.878;8.050;2023-03-01T12:46:39;6.68;;;4.03;;
35276;SDS011;21401;50.878;8.050;2023-03-01T12:49:17;7.43;;;4.70;;
35276;SDS011;21401;50.878;8.050;2023-03-01T12:51:55;5.97;;;3.67;;
35276;SDS011;21401;50.878;8.050;2023-03-01T12:54:30;5.82;;;3.45;;
35276;SDS011;21401;50.878;8.050;2023-03-01T12:56:59;13.45;;;5.22;;
35276;SDS011;21401;50.878;8.050;2023-03-01T13:00:00;7.97;;;4.28;;
35276;SDS011;21401;50.878;8.050;2023-03-01T13:02:52;6.03;;;3.97;;
35276;SDS011;21401;50.878;8.050;2023-03-01T13:11:35;5.45;;;3.65;;
35276;SDS011;21401;50.878;8.050;2023-03-01T13:16:45;11.80;;;3.83;;
35276;SDS011;21401;50.878;8.050;2023-03-01T13:21:43;8.85;;;4.10;;
35276;SDS011;21401;50.878;8.050;2023-03-01T13:27:22;8.32;;;4.00;;
35276;SDS011;21401;50.878;8.050;2023-03-01T13:29:58;8.02;;;4.15;;
35276;SDS011;21401;50.878;8.050;2023-03-01T13:35:03;8.27;;;4.10;;
35276;SDS011;21401;50.878;8.050;2023-03-01T13:37:44;5.88;;;3.58;;
35276;SDS011;21401;50.878;8.050;2023-03-01T13:42:50;9.38;;;3.72;;
35276;SDS011;21401;50.878;8.050;2023-03-01T13:45:21;7.78;;;3.83;;
35276;SDS011;21401;50.878;8.050;2023-03-01T13:47:58;6.95;;;3.72;;
35276;SDS011;21401;50.878;8.050;2023-03-01T13:50:50;12.20;;;3.88;;
35276;SDS011;21401;50.878;8.050;2023-03-01T13:53:21;6.60;;;3.80;;
35276;SDS011;21401;50.878;8.050;2023-03-01T13:55:55;8.48;;;4.30;;
35276;SDS011;21401;50.878;8.050;2023-03-01T13:58:28;8.50;;;4.18;;
35276;SDS011;21401;50.878;8.050;2023-03-01T14:03:23;8.55;;;4.50;;
35276;SDS011;21401;50.878;8.050;2023-03-01T14:08:24;6.55;;;4.20;;
35276;SDS011;21401;50.878;8.050;2023-03-01T14:21:41;7.47;;;4.50;;
35276;SDS011;21401;50.878;8.050;2023-03-01T14:24:14;12.30;;;6.38;;
35276;SDS011;21401;50.878;8.050;2023-03-01T14:26:46;8.65;;;4.80;;
35276;SDS011;21401;50.878;8.050;2023-03-01T14:29:23;8.80;;;5.05;;
35276;SDS011;21401;50.878;8.050;2023-03-01T14:34:45;8.93;;;4.97;;
35276;SDS011;21401;50.878;8.050;2023-03-01T14:37:30;8.70;;;5.60;;
35276;SDS011;21401;50.878;8.050;2023-03-01T14:39:58;9.10;;;5.25;;
35276;SDS011;21401;50.878;8.050;2023-03-01T14:42:27;7.32;;;5.57;;
35276;SDS011;21401;50.878;8.050;2023-03-01T14:45:00;8.93;;;5.28;;
35276;SDS011;21401;50.878;8.050;2023-03-01T14:47:29;10.07;;;5.00;;
35276;SDS011;21401;50.878;8.050;2023-03-01T14:49:58;7.93;;;4.95;;
35276;SDS011;21401;50.878;8.050;2023-03-01T14:52:39;11.32;;;5.13;;
35276;SDS011;21401;50.878;8.050;2023-03-01T14:55:16;9.23;;;5.30;;
35276;SDS011;21401;50.878;8.050;2023-03-01T14:57:47;11.48;;;5.63;;
35276;SDS011;21401;50.878;8.050;2023-03-01T15:00:22;8.32;;;4.97;;
35276;SDS011;21401;50.878;8.050;2023-03-01T15:02:50;9.57;;;5.47;;
35276;SDS011;21401;50.878;8.050;2023-03-01T15:05:18;11.10;;;4.65;;
35276;SDS011;21401;50.878;8.050;2023-03-01T15:07:50;9.02;;;5.00;;
35276;SDS011;21401;50.878;8.050;2023-03-01T15:10:21;7.47;;;4.93;;
35276;SDS011;21401;50.878;8.050;2023-03-01T15:12:48;9.68;;;5.00;;
35276;SDS011;21401;50.878;8.050;2023-03-01T15:15:26;9.93;;;5.38;;
35276;SDS011;21401;50.878;8.050;2023-03-01T15:17:58;7.65;;;5.35;;
35276;SDS011;21401;50.878;8.050;2023-03-01T15:20:27;15.07;;;6.00;;
35276;SDS011;21401;50.878;8.050;2023-03-01T15:22:55;6.93;;;4.32;;
35276;SDS011;21401;50.878;8.050;2023-03-01T15:25:22;10.00;;;5.32;;
35276;SDS011;21401;50.878;8.050;2023-03-01T15:27:51;9.18;;;5.18;;
35276;SDS011;21401;50.878;8.050;2023-03-01T15:30:20;9.25;;;5.18;;
35276;SDS011;21401;50.878;8.050;2023-03-01T15:32:48;8.63;;;5.20;;
35276;SDS011;21401;50.878;8.050;2023-03-01T15:35:44;9.90;;;5.65;;
35276;SDS011;21401;50.878;8.050;2023-03-01T15:41:05;10.80;;;6.15;;
35276;SDS011;21401;50.878;8.050;2023-03-01T15:43:47;9.30;;;5.68;;
35276;SDS011;21401;50.878;8.050;2023-03-01T15:46:18;10.73;;;5.38;;
35276;SDS011;21401;50.878;8.050;2023-03-01T15:48:49;7.53;;;5.03;;
35276;SDS011;21401;50.878;8.050;2023-03-01T15:51:19;10.45;;;5.28;;
35276;SDS011;21401;50.878;8.050;2023-03-01T15:53:53;10.70;;;5.28;;
35276;SDS011;21401;50.878;8.050;2023-03-01T15:56:19;10.25;;;4.95;;
35276;SDS011;21401;50.878;8.050;2023-03-01T15:58:45;10.95;;;5.05;;
35276;SDS011;21401;50.878;8.050;2023-03-01T16:01:14;8.35;;;4.82;;
35276;SDS011;21401;50.878;8.050;2023-03-01T16:03:44;14.38;;;5.05;;
35276;SDS011;21401;50.878;8.050;2023-03-01T16:06:10;9.50;;;5.13;;
35276;SDS011;21401;50.878;8.050;2023-03-01T16:08:36;10.35;;;5.38;;
35276;SDS011;21401;50.878;8.050;2023-03-01T16:11:04;8.68;;;4.70;;
35276;SDS011;21401;50.878;8.050;2023-03-01T16:13:34;10.27;;;5.68;;
35276;SDS011;21401;50.878;8.050;2023-03-01T16:16:02;9.52;;;4.70;;
35276;SDS011;21401;50.878;8.050;2023-03-01T16:18:27;12.18;;;5.45;;
35276;SDS011;21401;50.878;8.050;2023-03-01T16:20:53;7.38;;;4.75;;
35276;SDS011;21401;50.878;8.050;2023-03-01T16:23:19;12.85;;;5.40;;
35276;SDS011;21401;50.878;8.050;2023-03-01T16:25:46;11.88;;;6.15;;
35276;SDS011;21401;50.878;8.050;2023-03-01T16:28:11;8.07;;;4.68;;
35276;SDS011;21401;50.878;8.050;2023-03-01T16:30:39;9.07;;;5.07;;
35276;SDS011;21401;50.878;8.050;2023-03-01T16:33:04;10.50;;;5.68;;
35276;SDS011;21401;50.878;8.050;2023-03-01T16:35:32;12.48;;;5.63;;
35276;SDS011;21401;50.878;8.050;2023-03-01T16:37:59;10.90;;;5.32;;
35276;SDS011;21401;50.878;8.050;2023-03-01T16:40:28;10.02;;;4.97;;
35276;SDS011;21401;50.878;8.050;2023-03-01T16:42:54;12.52;;;5.13;;
35276;SDS011;21401;50.878;8.050;2023-03-01T16:45:29;9.90;;;4.97;;
35276;SDS011;21401;50.878;8.050;2023-03-01T16:48:00;10.45;;;5.80;;
35276;SDS011;21401;50.878;8.050;2023-03-01T16:50:26;11.45;;;5.40;;